Roy Michael — WD13791 — position and weather

sailwx.info

Track history (hours):
 
Tides and Currents Weather Stations Pressure Air Temp Water Temp Dewpoint Dewpoint Depression Visibility Wind Speed Wind Dir Waves Ship Positions

Roy Michael

Last reported at 2018-May-24 04:18 UTC. Time now 2018-May-24 14:07 UTC.
Position N 29°43' W 095°13'.

Length 23 m; draft 3 m.

Type: Tug. MMSI: 367691950.

Date/timePositionNaut miles runAvg speedWind from/ knotsBaromVisibWave heightAir tempDewpointWater temp
2018-May-24 04:18N 29°43' W 095°13'0 0.1
2018-May-24 04:00N 29°43' W 095°13'0 0.1
2018-May-24 03:05N 29°44' W 095°13'2 4.9
2018-May-24 02:45N 29°45' W 095°12'2 5.9
2018-May-24 02:26N 29°45' W 095°10'5 3.4
2018-May-24 00:52N 29°47' W 095°04'0 0.1
2018-May-23 23:02N 29°47' W 095°04'0 0.0
2018-May-23 22:47N 29°47' W 095°04'0 0.0
2018-May-23 22:14N 29°47' W 095°04'0 0.0
2018-May-23 21:54N 29°47' W 095°04'0 0.0
2018-May-23 21:30N 29°47' W 095°04'2 3.5
2018-May-23 20:58N 29°46' W 095°06'0 0.0
2018-May-23 20:30N 29°46' W 095°06'2 0.3
2018-May-23 12:47N 29°47' W 095°04'0 0.0
2018-May-23 12:14N 29°47' W 095°04'0 0.0
2018-May-23 11:37N 29°47' W 095°04'0 0.0
2018-May-23 11:22N 29°47' W 095°04'0 0.0
2018-May-23 04:49N 29°47' W 095°04'1 0.1
2018-May-22 13:42N 29°47' W 095°06'0 0.0
2018-May-22 03:46N 29°47' W 095°06'1 0.1
2018-May-21 15:40N 29°46' W 095°05'0 0.0
2018-May-21 04:59N 29°45' W 095°06'0 0.1
2018-May-21 03:30N 29°45' W 095°06'4 1.2
2018-May-21 00:05N 29°45' W 095°10'1 5.8
2018-May-20 23:59N 29°45' W 095°10'4 0.4
2018-May-20 14:13N 29°45' W 095°06'1 4.9
2018-May-20 13:55N 29°45' W 095°04'3 6.3
2018-May-20 13:24N 29°43' W 095°01'2 6.3
2018-May-20 13:00N 29°41' W 094°59'3 6.5
2018-May-20 12:30N 29°38' W 094°58'2 4.0
2018-May-20 12:00N 29°37' W 094°59'2 3.8
2018-May-20 11:30N 29°37' W 095°01'0 0.0
2018-May-20 11:00N 29°37' W 095°01'0 0.0
2018-May-20 10:30N 29°37' W 095°01'0 0.0
2018-May-20 10:00N 29°37' W 095°01'0 0.0
2018-May-20 09:30N 29°37' W 095°01'0 0.0
2018-May-20 09:00N 29°37' W 095°01'0 0.0
2018-May-20 08:30N 29°37' W 095°01'0 0.0
2018-May-20 08:00N 29°37' W 095°01'0 0.0
2018-May-20 07:30N 29°37' W 095°01'0 0.0
2018-May-20 07:00N 29°37' W 095°01'0 0.0
2018-May-20 06:30N 29°37' W 095°01'0 0.0
2018-May-20 06:00N 29°37' W 095°01'0 0.0
2018-May-20 05:30N 29°37' W 095°01'0 0.0
2018-May-20 05:00N 29°37' W 095°01'0 0.0
2018-May-20 04:30N 29°37' W 095°01'0 0.0
2018-May-20 04:00N 29°37' W 095°01'0 0.0
2018-May-20 03:30N 29°37' W 095°01'0 0.0
2018-May-20 03:00N 29°37' W 095°01'0 0.0
2018-May-20 02:30N 29°37' W 095°01'0 0.0
2018-May-20 02:00N 29°37' W 095°01'0 0.0
2018-May-20 01:30N 29°37' W 095°01'1 2.3
2018-May-20 01:00N 29°37' W 095°00'2 4.6
2018-May-20 00:30N 29°38' W 094°58'3 6.1
2018-May-20 00:00N 29°40' W 094°59'3 5.5
2018-May-19 23:30N 29°42' W 095°01'6 0.5
2018-May-19 13:02N 29°47' W 095°04'0 0.0
2018-May-19 08:03N 29°47' W 095°04'0 0.0
2018-May-19 07:43N 29°47' W 095°04'0 0.0
2018-May-19 07:15N 29°47' W 095°04'0 0.0
2018-May-19 06:51N 29°47' W 095°04'2 1.4
2018-May-19 05:25N 29°46' W 095°06'0 0.2
2018-May-19 03:37N 29°45' W 095°06'1 2.2
2018-May-19 03:02N 29°46' W 095°04'0 0.0
2018-May-19 02:48N 29°46' W 095°04'1 3.2
2018-May-19 02:26N 29°45' W 095°05'0 0.0
2018-May-18 21:35N 29°46' W 095°06'1 0.3
2018-May-18 19:19N 29°45' W 095°06'0 0.0
2018-May-18 18:49N 29°45' W 095°06'0 0.0
2018-May-18 18:25N 29°45' W 095°06'0 0.0
2018-May-18 17:48N 29°45' W 095°06'0 0.0
2018-May-18 14:26N 29°45' W 095°06'0 0.0
2018-May-18 14:00N 29°45' W 095°06'0 0.0
2018-May-18 13:29N 29°45' W 095°06'0 0.0
2018-May-18 13:00N 29°45' W 095°06'0 0.0
2018-May-18 12:24N 29°45' W 095°06'0 0.0
2018-May-18 12:00N 29°45' W 095°06'0 0.0
2018-May-18 11:30N 29°45' W 095°06'0 0.0
2018-May-18 11:00N 29°45' W 095°06'0 0.0
2018-May-18 10:30N 29°45' W 095°06'0 0.0
2018-May-18 10:00N 29°45' W 095°06'0 0.0
2018-May-18 09:30N 29°45' W 095°06'0 0.0
2018-May-18 09:00N 29°45' W 095°06'0 0.0
2018-May-18 08:30N 29°45' W 095°06'0 0.7
2018-May-18 08:00N 29°45' W 095°06'0 0.5
2018-May-18 07:30N 29°45' W 095°06'0 0.1
2018-May-18 07:00N 29°45' W 095°06'0 0.0
2018-May-18 06:30N 29°45' W 095°06'0 0.2
2018-May-18 05:59N 29°46' W 095°06'0 0.0
2018-May-18 05:30N 29°46' W 095°06'0 0.0
2018-May-18 05:00N 29°46' W 095°06'0 0.2
2018-May-18 04:30N 29°45' W 095°06'1 1.2
2018-May-18 04:00N 29°45' W 095°06'0 0.0
2018-May-18 03:30N 29°45' W 095°06'0 0.0
2018-May-18 03:00N 29°45' W 095°06'0 0.0
2018-May-18 02:30N 29°45' W 095°06'0 0.0
2018-May-18 02:00N 29°45' W 095°06'0 0.0
2018-May-18 01:28N 29°45' W 095°06'0 0.0
2018-May-18 00:57N 29°45' W 095°06'0 0.0
2018-May-18 00:30N 29°45' W 095°06'0 0.0
2018-May-17 23:56N 29°45' W 095°06'0 0.0
2018-May-17 23:25N 29°45' W 095°06'0 0.0
2018-May-17 19:45N 29°45' W 095°06'0 0.0
2018-May-17 17:37N 29°45' W 095°06'0 0.0
2018-May-17 17:28N 29°45' W 095°06'0 0.0
2018-May-17 16:59N 29°45' W 095°06'0 0.0
2018-May-17 16:26N 29°45' W 095°06'0 0.0
2018-May-17 15:58N 29°45' W 095°06'0 0.0
2018-May-17 15:07N 29°45' W 095°06'0 0.0
2018-May-17 14:58N 29°45' W 095°06'0 0.0
2018-May-17 14:21N 29°45' W 095°06'0 0.0
2018-May-17 13:53N 29°45' W 095°06'0 0.0
2018-May-17 13:27N 29°45' W 095°06'0 0.0
2018-May-17 13:00N 29°45' W 095°06'0 0.0
2018-May-17 12:30N 29°45' W 095°06'0 0.0
2018-May-17 12:00N 29°45' W 095°06'0 0.0
2018-May-17 11:30N 29°45' W 095°06'0 0.5
2018-May-17 11:00N 29°45' W 095°06'0 0.6
2018-May-17 10:29N 29°45' W 095°06'0 0.0
2018-May-17 10:00N 29°45' W 095°06'0 0.0
2018-May-17 09:21N 29°45' W 095°06'0 0.0
2018-May-17 08:59N 29°45' W 095°06'0 0.0
2018-May-17 08:30N 29°45' W 095°06'0 0.0
2018-May-17 08:00N 29°45' W 095°06'0 0.0
2018-May-17 07:27N 29°45' W 095°06'0 0.0
2018-May-17 06:46N 29°45' W 095°06'0 0.0
2018-May-17 06:16N 29°45' W 095°06'0 0.0
2018-May-17 06:00N 29°45' W 095°06'0 0.0
2018-May-17 05:28N 29°45' W 095°06'0 0.0
2018-May-17 04:41N 29°45' W 095°06'0 0.0
2018-May-17 04:30N 29°45' W 095°06'0 0.0
2018-May-17 03:58N 29°45' W 095°06'0 0.0
2018-May-17 03:30N 29°45' W 095°06'0 0.0
2018-May-17 02:59N 29°45' W 095°06'0 0.0
2018-May-17 02:30N 29°45' W 095°06'0 0.0
2018-May-17 01:58N 29°45' W 095°06'0 0.0
2018-May-17 01:24N 29°45' W 095°06'0 0.0
2018-May-16 18:11N 29°45' W 095°06'0 0.1
2018-May-16 15:23N 29°46' W 095°05'0 0.7
2018-May-16 14:59N 29°46' W 095°05'1 2.5
2018-May-16 14:30N 29°45' W 095°04'2 3.5
2018-May-16 14:00N 29°44' W 095°03'3 6.4
2018-May-16 13:30N 29°42' W 094°60'4 7.5
2018-May-16 13:00N 29°39' W 094°58'4 7.8
2018-May-16 12:30N 29°35' W 094°56'4 7.7
2018-May-16 12:00N 29°32' W 094°54'4 8.9
2018-May-16 11:30N 29°28' W 094°51'5 9.7
2018-May-16 11:00N 29°23' W 094°49'3 6.1
2018-May-16 10:30N 29°21' W 094°50'3 5.4
2018-May-16 10:00N 29°19' W 094°52'2 4.8
2018-May-16 09:30N 29°17' W 094°54'2 5.0
2018-May-16 09:00N 29°17' W 094°57'3 5.1
2018-May-16 08:30N 29°16' W 094°59'3 5.3
2018-May-16 08:00N 29°14' W 095°02'2 4.9
2018-May-16 07:30N 29°12' W 095°03'3 5.2
2018-May-16 07:00N 29°11' W 095°06'3 5.3
2018-May-16 06:30N 29°09' W 095°08'2 3.6
2018-May-16 06:00N 29°08' W 095°10'1 2.2
2018-May-16 05:30N 29°07' W 095°11'2 3.6
2018-May-16 05:00N 29°06' W 095°12'2 4.0
2018-May-16 04:30N 29°04' W 095°13'2 3.5
2018-May-16 04:00N 29°02' W 095°14'2 4.1
2018-May-16 03:30N 29°01' W 095°15'2 4.3
2018-May-16 03:00N 28°59' W 095°16'2 3.8
2018-May-16 02:29N 28°57' W 095°18'2 4.7
2018-May-16 02:00N 28°56' W 095°19'2 3.3
2018-May-16 01:30N 28°55' W 095°21'1 1.6
2018-May-16 00:59N 28°54' W 095°22'0 0.0
2018-May-16 00:29N 28°54' W 095°22'1 1.4
2018-May-16 00:00N 28°54' W 095°22'2 0.5
2018-May-15 20:47N 28°54' W 095°24'0 0.0
2018-May-15 20:30N 28°54' W 095°24'2 3.0
2018-May-15 19:56N 28°53' W 095°26'3 4.3
2018-May-15 19:18N 28°52' W 095°29'2 5.0
2018-May-15 18:59N 28°51' W 095°30'2 4.6
2018-May-15 18:30N 28°49' W 095°32'2 3.4
2018-May-15 17:57N 28°48' W 095°33'2 4.6
2018-May-15 17:30N 28°47' W 095°36'2 4.5
2018-May-15 17:00N 28°46' W 095°38'7 4.3
2018-May-15 15:28N 28°45' W 095°45'3 4.5
2018-May-15 14:49N 28°45' W 095°48'2 5.0
2018-May-15 14:27N 28°44' W 095°50'3 5.3
2018-May-15 13:58N 28°43' W 095°53'3 5.6
2018-May-15 13:30N 28°42' W 095°56'1 2.3
2018-May-15 12:59N 28°42' W 095°57'0 0.0
2018-May-15 12:30N 28°42' W 095°57'0 0.0
2018-May-15 11:56N 28°42' W 095°57'1 0.3
2018-May-15 09:46N 28°41' W 095°58'1 1.6
2018-May-15 09:27N 28°41' W 095°57'1 1.3
2018-May-15 08:32N 28°41' W 095°59'0 3.4
2018-May-15 08:30N 28°41' W 095°59'1 1.5
2018-May-15 08:00N 28°41' W 095°59'0 0.2
2018-May-15 07:06N 28°40' W 095°60'0 2.6
2018-May-15 06:56N 28°40' W 096°00'2 4.5
2018-May-15 06:23N 28°39' W 096°03'3 3.8
2018-May-15 05:43N 28°38' W 096°05'1 4.7
2018-May-15 05:30N 28°38' W 096°06'2 4.6
2018-May-15 04:58N 28°37' W 096°09'7 4.5
2018-May-15 03:22N 28°32' W 096°15'6 5.2
2018-May-15 02:18N 28°29' W 096°20'5 5.4
2018-May-15 01:25N 28°26' W 096°25'  
Track history (hours):
 
Tides and Currents Weather Stations Pressure Air Temp Water Temp Dewpoint Dewpoint Depression Visibility Wind Speed Wind Dir Waves Ship Positions

Roy Michael

Last reported at 2018-May-24 04:18 UTC. Time now 2018-May-24 14:07 UTC.
Position N 29°43' W 095°13'.

Length 23 m; draft 3 m.

Type: Tug. MMSI: 367691950.

Date/timePositionNaut miles runAvg speedWind from/ knotsBaromVisibWave heightAir tempDewpointWater temp
2018-May-24 04:18N 29°43' W 095°13'0 0.1
2018-May-24 04:00N 29°43' W 095°13'0 0.1
2018-May-24 03:05N 29°44' W 095°13'2 4.9
2018-May-24 02:45N 29°45' W 095°12'2 5.9
2018-May-24 02:26N 29°45' W 095°10'5 3.4
2018-May-24 00:52N 29°47' W 095°04'0 0.1
2018-May-23 23:02N 29°47' W 095°04'0 0.0
2018-May-23 22:47N 29°47' W 095°04'0 0.0
2018-May-23 22:14N 29°47' W 095°04'0 0.0
2018-May-23 21:54N 29°47' W 095°04'0 0.0
2018-May-23 21:30N 29°47' W 095°04'2 3.5
2018-May-23 20:58N 29°46' W 095°06'0 0.0
2018-May-23 20:30N 29°46' W 095°06'2 0.3
2018-May-23 12:47N 29°47' W 095°04'0 0.0
2018-May-23 12:14N 29°47' W 095°04'0 0.0
2018-May-23 11:37N 29°47' W 095°04'0 0.0
2018-May-23 11:22N 29°47' W 095°04'0 0.0
2018-May-23 04:49N 29°47' W 095°04'1 0.1
2018-May-22 13:42N 29°47' W 095°06'0 0.0
2018-May-22 03:46N 29°47' W 095°06'1 0.1
2018-May-21 15:40N 29°46' W 095°05'0 0.0
2018-May-21 04:59N 29°45' W 095°06'0 0.1
2018-May-21 03:30N 29°45' W 095°06'4 1.2
2018-May-21 00:05N 29°45' W 095°10'1 5.8
2018-May-20 23:59N 29°45' W 095°10'4 0.4
2018-May-20 14:13N 29°45' W 095°06'1 4.9
2018-May-20 13:55N 29°45' W 095°04'3 6.3
2018-May-20 13:24N 29°43' W 095°01'2 6.3
2018-May-20 13:00N 29°41' W 094°59'3 6.5
2018-May-20 12:30N 29°38' W 094°58'2 4.0
2018-May-20 12:00N 29°37' W 094°59'2 3.8
2018-May-20 11:30N 29°37' W 095°01'0 0.0
2018-May-20 11:00N 29°37' W 095°01'0 0.0
2018-May-20 10:30N 29°37' W 095°01'0 0.0
2018-May-20 10:00N 29°37' W 095°01'0 0.0
2018-May-20 09:30N 29°37' W 095°01'0 0.0
2018-May-20 09:00N 29°37' W 095°01'0 0.0
2018-May-20 08:30N 29°37' W 095°01'0 0.0
2018-May-20 08:00N 29°37' W 095°01'0 0.0
2018-May-20 07:30N 29°37' W 095°01'0 0.0
2018-May-20 07:00N 29°37' W 095°01'0 0.0
2018-May-20 06:30N 29°37' W 095°01'0 0.0
2018-May-20 06:00N 29°37' W 095°01'0 0.0
2018-May-20 05:30N 29°37' W 095°01'0 0.0
2018-May-20 05:00N 29°37' W 095°01'0 0.0
2018-May-20 04:30N 29°37' W 095°01'0 0.0
2018-May-20 04:00N 29°37' W 095°01'0 0.0
2018-May-20 03:30N 29°37' W 095°01'0 0.0
2018-May-20 03:00N 29°37' W 095°01'0 0.0
2018-May-20 02:30N 29°37' W 095°01'0 0.0
2018-May-20 02:00N 29°37' W 095°01'0 0.0
2018-May-20 01:30N 29°37' W 095°01'1 2.3
2018-May-20 01:00N 29°37' W 095°00'2 4.6
2018-May-20 00:30N 29°38' W 094°58'3 6.1
2018-May-20 00:00N 29°40' W 094°59'3 5.5
2018-May-19 23:30N 29°42' W 095°01'6 0.5
2018-May-19 13:02N 29°47' W 095°04'0 0.0
2018-May-19 08:03N 29°47' W 095°04'0 0.0
2018-May-19 07:43N 29°47' W 095°04'0 0.0
2018-May-19 07:15N 29°47' W 095°04'0 0.0
2018-May-19 06:51N 29°47' W 095°04'2 1.4
2018-May-19 05:25N 29°46' W 095°06'0 0.2
2018-May-19 03:37N 29°45' W 095°06'1 2.2
2018-May-19 03:02N 29°46' W 095°04'0 0.0
2018-May-19 02:48N 29°46' W 095°04'1 3.2
2018-May-19 02:26N 29°45' W 095°05'0 0.0
2018-May-18 21:35N 29°46' W 095°06'1 0.3
2018-May-18 19:19N 29°45' W 095°06'0 0.0
2018-May-18 18:49N 29°45' W 095°06'0 0.0
2018-May-18 18:25N 29°45' W 095°06'0 0.0
2018-May-18 17:48N 29°45' W 095°06'0 0.0
2018-May-18 14:26N 29°45' W 095°06'0 0.0
2018-May-18 14:00N 29°45' W 095°06'0 0.0
2018-May-18 13:29N 29°45' W 095°06'0 0.0
2018-May-18 13:00N 29°45' W 095°06'0 0.0
2018-May-18 12:24N 29°45' W 095°06'0 0.0
2018-May-18 12:00N 29°45' W 095°06'0 0.0
2018-May-18 11:30N 29°45' W 095°06'0 0.0
2018-May-18 11:00N 29°45' W 095°06'0 0.0
2018-May-18 10:30N 29°45' W 095°06'0 0.0
2018-May-18 10:00N 29°45' W 095°06'0 0.0
2018-May-18 09:30N 29°45' W 095°06'0 0.0
2018-May-18 09:00N 29°45' W 095°06'0 0.0
2018-May-18 08:30N 29°45' W 095°06'0 0.7
2018-May-18 08:00N 29°45' W 095°06'0 0.5
2018-May-18 07:30N 29°45' W 095°06'0 0.1
2018-May-18 07:00N 29°45' W 095°06'0 0.0
2018-May-18 06:30N 29°45' W 095°06'0 0.2
2018-May-18 05:59N 29°46' W 095°06'0 0.0
2018-May-18 05:30N 29°46' W 095°06'0 0.0
2018-May-18 05:00N 29°46' W 095°06'0 0.2
2018-May-18 04:30N 29°45' W 095°06'1 1.2
2018-May-18 04:00N 29°45' W 095°06'0 0.0
2018-May-18 03:30N 29°45' W 095°06'0 0.0
2018-May-18 03:00N 29°45' W 095°06'0 0.0
2018-May-18 02:30N 29°45' W 095°06'0 0.0
2018-May-18 02:00N 29°45' W 095°06'0 0.0
2018-May-18 01:28N 29°45' W 095°06'0 0.0
2018-May-18 00:57N 29°45' W 095°06'0 0.0
2018-May-18 00:30N 29°45' W 095°06'0 0.0
2018-May-17 23:56N 29°45' W 095°06'0 0.0
2018-May-17 23:25N 29°45' W 095°06'0 0.0
2018-May-17 19:45N 29°45' W 095°06'0 0.0
2018-May-17 17:37N 29°45' W 095°06'0 0.0
2018-May-17 17:28N 29°45' W 095°06'0 0.0
2018-May-17 16:59N 29°45' W 095°06'0 0.0
2018-May-17 16:26N 29°45' W 095°06'0 0.0
2018-May-17 15:58N 29°45' W 095°06'0 0.0
2018-May-17 15:07N 29°45' W 095°06'0 0.0
2018-May-17 14:58N 29°45' W 095°06'0 0.0
2018-May-17 14:21N 29°45' W 095°06'0 0.0
2018-May-17 13:53N 29°45' W 095°06'0 0.0
2018-May-17 13:27N 29°45' W 095°06'0 0.0
2018-May-17 13:00N 29°45' W 095°06'0 0.0
2018-May-17 12:30N 29°45' W 095°06'0 0.0
2018-May-17 12:00N 29°45' W 095°06'0 0.0
2018-May-17 11:30N 29°45' W 095°06'0 0.5
2018-May-17 11:00N 29°45' W 095°06'0 0.6
2018-May-17 10:29N 29°45' W 095°06'0 0.0
2018-May-17 10:00N 29°45' W 095°06'0 0.0
2018-May-17 09:21N 29°45' W 095°06'0 0.0
2018-May-17 08:59N 29°45' W 095°06'0 0.0
2018-May-17 08:30N 29°45' W 095°06'0 0.0
2018-May-17 08:00N 29°45' W 095°06'0 0.0
2018-May-17 07:27N 29°45' W 095°06'0 0.0
2018-May-17 06:46N 29°45' W 095°06'0 0.0
2018-May-17 06:16N 29°45' W 095°06'0 0.0
2018-May-17 06:00N 29°45' W 095°06'0 0.0
2018-May-17 05:28N 29°45' W 095°06'0 0.0
2018-May-17 04:41N 29°45' W 095°06'0 0.0
2018-May-17 04:30N 29°45' W 095°06'0 0.0
2018-May-17 03:58N 29°45' W 095°06'0 0.0
2018-May-17 03:30N 29°45' W 095°06'0 0.0
2018-May-17 02:59N 29°45' W 095°06'0 0.0
2018-May-17 02:30N 29°45' W 095°06'0 0.0
2018-May-17 01:58N 29°45' W 095°06'0 0.0
2018-May-17 01:24N 29°45' W 095°06'0 0.0
2018-May-16 18:11N 29°45' W 095°06'0 0.1
2018-May-16 15:23N 29°46' W 095°05'0 0.7
2018-May-16 14:59N 29°46' W 095°05'1 2.5
2018-May-16 14:30N 29°45' W 095°04'2 3.5
2018-May-16 14:00N 29°44' W 095°03'3 6.4
2018-May-16 13:30N 29°42' W 094°60'4 7.5
2018-May-16 13:00N 29°39' W 094°58'4 7.8
2018-May-16 12:30N 29°35' W 094°56'4 7.7
2018-May-16 12:00N 29°32' W 094°54'4 8.9
2018-May-16 11:30N 29°28' W 094°51'5 9.7
2018-May-16 11:00N 29°23' W 094°49'3 6.1
2018-May-16 10:30N 29°21' W 094°50'3 5.4
2018-May-16 10:00N 29°19' W 094°52'2 4.8
2018-May-16 09:30N 29°17' W 094°54'2 5.0
2018-May-16 09:00N 29°17' W 094°57'3 5.1
2018-May-16 08:30N 29°16' W 094°59'3 5.3
2018-May-16 08:00N 29°14' W 095°02'2 4.9
2018-May-16 07:30N 29°12' W 095°03'3 5.2
2018-May-16 07:00N 29°11' W 095°06'3 5.3
2018-May-16 06:30N 29°09' W 095°08'2 3.6
2018-May-16 06:00N 29°08' W 095°10'1 2.2
2018-May-16 05:30N 29°07' W 095°11'2 3.6
2018-May-16 05:00N 29°06' W 095°12'2 4.0
2018-May-16 04:30N 29°04' W 095°13'2 3.5
2018-May-16 04:00N 29°02' W 095°14'2 4.1
2018-May-16 03:30N 29°01' W 095°15'2 4.3
2018-May-16 03:00N 28°59' W 095°16'2 3.8
2018-May-16 02:29N 28°57' W 095°18'2 4.7
2018-May-16 02:00N 28°56' W 095°19'2 3.3
2018-May-16 01:30N 28°55' W 095°21'1 1.6
2018-May-16 00:59N 28°54' W 095°22'0 0.0
2018-May-16 00:29N 28°54' W 095°22'1 1.4
2018-May-16 00:00N 28°54' W 095°22'2 0.5
2018-May-15 20:47N 28°54' W 095°24'0 0.0
2018-May-15 20:30N 28°54' W 095°24'2 3.0
2018-May-15 19:56N 28°53' W 095°26'3 4.3
2018-May-15 19:18N 28°52' W 095°29'2 5.0
2018-May-15 18:59N 28°51' W 095°30'2 4.6
2018-May-15 18:30N 28°49' W 095°32'2 3.4
2018-May-15 17:57N 28°48' W 095°33'2 4.6
2018-May-15 17:30N 28°47' W 095°36'2 4.5
2018-May-15 17:00N 28°46' W 095°38'7 4.3
2018-May-15 15:28N 28°45' W 095°45'3 4.5
2018-May-15 14:49N 28°45' W 095°48'2 5.0
2018-May-15 14:27N 28°44' W 095°50'3 5.3
2018-May-15 13:58N 28°43' W 095°53'3 5.6
2018-May-15 13:30N 28°42' W 095°56'1 2.3
2018-May-15 12:59N 28°42' W 095°57'0 0.0
2018-May-15 12:30N 28°42' W 095°57'0 0.0
2018-May-15 11:56N 28°42' W 095°57'1 0.3
2018-May-15 09:46N 28°41' W 095°58'1 1.6
2018-May-15 09:27N 28°41' W 095°57'1 1.3
2018-May-15 08:32N 28°41' W 095°59'0 3.4
2018-May-15 08:30N 28°41' W 095°59'1 1.5
2018-May-15 08:00N 28°41' W 095°59'0 0.2
2018-May-15 07:06N 28°40' W 095°60'0 2.6
2018-May-15 06:56N 28°40' W 096°00'2 4.5
2018-May-15 06:23N 28°39' W 096°03'3 3.8
2018-May-15 05:43N 28°38' W 096°05'1 4.7
2018-May-15 05:30N 28°38' W 096°06'2 4.6
2018-May-15 04:58N 28°37' W 096°09'7 4.5
2018-May-15 03:22N 28°32' W 096°15'6 5.2
2018-May-15 02:18N 28°29' W 096°20'5 5.4
2018-May-15 01:25N 28°26' W 096°25'  

Dump ship's entire track history